sensor_id;sensor_type;location;lat;lon;timestamp;P1;durP1;ratioP1;P2;durP2;ratioP2
25980;SDS011;13772;52.996;9.124;2023-02-15T08:20:12;20.98;;;7.63;;
25980;SDS011;13772;52.996;9.124;2023-02-15T08:22:38;11.93;;;7.65;;
25980;SDS011;13772;52.996;9.124;2023-02-15T08:25:03;37.13;;;9.52;;
25980;SDS011;13772;52.996;9.124;2023-02-15T08:27:28;49.85;;;9.63;;
25980;SDS011;13772;52.996;9.124;2023-02-15T08:29:54;37.22;;;9.45;;
25980;SDS011;13772;52.996;9.124;2023-02-15T08:32:19;27.10;;;8.90;;
25980;SDS011;13772;52.996;9.124;2023-02-15T08:34:44;42.55;;;9.85;;
25980;SDS011;13772;52.996;9.124;2023-02-15T08:37:09;34.55;;;10.00;;
25980;SDS011;13772;52.996;9.124;2023-02-15T08:39:34;52.58;;;10.77;;
25980;SDS011;13772;52.996;9.124;2023-02-15T08:42:00;26.15;;;10.48;;
25980;SDS011;13772;52.996;9.124;2023-02-15T08:44:25;35.47;;;9.77;;
25980;SDS011;13772;52.996;9.124;2023-02-15T08:46:50;53.47;;;10.43;;
25980;SDS011;13772;52.996;9.124;2023-02-15T08:49:19;25.38;;;10.85;;
25980;SDS011;13772;52.996;9.124;2023-02-15T08:51:45;20.33;;;11.00;;
25980;SDS011;13772;52.996;9.124;2023-02-15T08:54:12;27.05;;;11.70;;
25980;SDS011;13772;52.996;9.124;2023-02-15T08:56:38;30.30;;;11.43;;
25980;SDS011;13772;52.996;9.124;2023-02-15T08:59:04;22.58;;;11.63;;
25980;SDS011;13772;52.996;9.124;2023-02-15T09:01:31;16.05;;;11.13;;
25980;SDS011;13772;52.996;9.124;2023-02-15T09:04:05;16.95;;;12.77;;
25980;SDS011;13772;52.996;9.124;2023-02-15T09:06:33;19.80;;;11.98;;
25980;SDS011;13772;52.996;9.124;2023-02-15T09:08:59;17.73;;;12.52;;
25980;SDS011;13772;52.996;9.124;2023-02-15T09:11:25;18.48;;;14.05;;
25980;SDS011;13772;52.996;9.124;2023-02-15T09:13:58;18.20;;;13.10;;
25980;SDS011;13772;52.996;9.124;2023-02-15T09:16:24;18.70;;;13.73;;
25980;SDS011;13772;52.996;9.124;2023-02-15T09:18:50;18.38;;;14.13;;
25980;SDS011;13772;52.996;9.124;2023-02-15T09:21:17;19.50;;;13.90;;
25980;SDS011;13772;52.996;9.124;2023-02-15T09:23:44;20.13;;;14.65;;
25980;SDS011;13772;52.996;9.124;2023-02-15T09:26:15;21.40;;;15.32;;
25980;SDS011;13772;52.996;9.124;2023-02-15T09:28:41;22.42;;;15.77;;
25980;SDS011;13772;52.996;9.124;2023-02-15T09:31:14;19.65;;;14.77;;
25980;SDS011;13772;52.996;9.124;2023-02-15T09:33:40;20.83;;;15.48;;
25980;SDS011;13772;52.996;9.124;2023-02-15T09:36:12;21.92;;;15.40;;
25980;SDS011;13772;52.996;9.124;2023-02-15T09:38:38;21.02;;;14.90;;
25980;SDS011;13772;52.996;9.124;2023-02-15T09:41:08;21.17;;;15.63;;
25980;SDS011;13772;52.996;9.124;2023-02-15T09:49:04;21.38;;;14.85;;
25980;SDS011;13772;52.996;9.124;2023-02-15T09:51:38;20.17;;;14.57;;
25980;SDS011;13772;52.996;9.124;2023-02-15T09:54:15;20.58;;;15.43;;
25980;SDS011;13772;52.996;9.124;2023-02-15T09:56:55;20.45;;;15.38;;
25980;SDS011;13772;52.996;9.124;2023-02-15T10:02:00;20.98;;;15.55;;
25980;SDS011;13772;52.996;9.124;2023-02-15T10:04:49;19.15;;;14.73;;
25980;SDS011;13772;52.996;9.124;2023-02-15T10:07:41;18.10;;;13.70;;
25980;SDS011;13772;52.996;9.124;2023-02-15T10:10:17;17.50;;;13.30;;
25980;SDS011;13772;52.996;9.124;2023-02-15T10:12:51;19.77;;;14.63;;
25980;SDS011;13772;52.996;9.124;2023-02-15T10:15:27;23.25;;;14.18;;
25980;SDS011;13772;52.996;9.124;2023-02-15T10:18:05;20.57;;;15.07;;
25980;SDS011;13772;52.996;9.124;2023-02-15T10:23:50;16.73;;;12.75;;
25980;SDS011;13772;52.996;9.124;2023-02-15T10:28:44;17.67;;;13.88;;
25980;SDS011;13772;52.996;9.124;2023-02-15T10:31:14;19.13;;;15.13;;
25980;SDS011;13772;52.996;9.124;2023-02-15T10:33:42;19.00;;;15.07;;
25980;SDS011;13772;52.996;9.124;2023-02-15T10:38:56;18.00;;;14.15;;
25980;SDS011;13772;52.996;9.124;2023-02-15T10:56:43;14.50;;;11.80;;
25980;SDS011;13772;52.996;9.124;2023-02-15T10:59:21;15.13;;;12.65;;
25980;SDS011;13772;52.996;9.124;2023-02-15T11:07:05;18.40;;;14.02;;
25980;SDS011;13772;52.996;9.124;2023-02-15T11:09:36;17.20;;;13.10;;
25980;SDS011;13772;52.996;9.124;2023-02-15T11:12:02;19.55;;;14.75;;
25980;SDS011;13772;52.996;9.124;2023-02-15T11:14:41;17.95;;;13.95;;
25980;SDS011;13772;52.996;9.124;2023-02-15T11:17:12;21.08;;;14.93;;
25980;SDS011;13772;52.996;9.124;2023-02-15T11:19:41;19.48;;;14.45;;
25980;SDS011;13772;52.996;9.124;2023-02-15T11:22:09;20.27;;;14.30;;
25980;SDS011;13772;52.996;9.124;2023-02-15T11:24:37;20.30;;;15.40;;
25980;SDS011;13772;52.996;9.124;2023-02-15T11:27:25;19.95;;;14.70;;
25980;SDS011;13772;52.996;9.124;2023-02-15T11:29:53;20.92;;;15.23;;
25980;SDS011;13772;52.996;9.124;2023-02-15T11:34:50;22.85;;;16.33;;
25980;SDS011;13772;52.996;9.124;2023-02-15T11:37:18;21.83;;;14.82;;
25980;SDS011;13772;52.996;9.124;2023-02-15T11:39:44;20.98;;;15.07;;
25980;SDS011;13772;52.996;9.124;2023-02-15T11:42:12;21.38;;;16.00;;
25980;SDS011;13772;52.996;9.124;2023-02-15T11:44:53;22.30;;;16.50;;
25980;SDS011;13772;52.996;9.124;2023-02-15T11:47:20;21.77;;;16.60;;
25980;SDS011;13772;52.996;9.124;2023-02-15T11:49:45;22.55;;;16.80;;
25980;SDS011;13772;52.996;9.124;2023-02-15T11:52:11;23.05;;;16.77;;
25980;SDS011;13772;52.996;9.124;2023-02-15T11:54:39;23.23;;;16.45;;
25980;SDS011;13772;52.996;9.124;2023-02-15T11:57:14;22.95;;;16.75;;
25980;SDS011;13772;52.996;9.124;2023-02-15T11:59:40;22.05;;;15.60;;
25980;SDS011;13772;52.996;9.124;2023-02-15T12:02:15;20.38;;;16.35;;
25980;SDS011;13772;52.996;9.124;2023-02-15T12:04:41;21.63;;;16.33;;
25980;SDS011;13772;52.996;9.124;2023-02-15T12:07:11;25.38;;;17.70;;
25980;SDS011;13772;52.996;9.124;2023-02-15T12:12:27;23.83;;;16.65;;
25980;SDS011;13772;52.996;9.124;2023-02-15T12:14:54;25.17;;;17.85;;
25980;SDS011;13772;52.996;9.124;2023-02-15T12:17:20;24.48;;;18.17;;
25980;SDS011;13772;52.996;9.124;2023-02-15T12:19:45;23.08;;;17.17;;
25980;SDS011;13772;52.996;9.124;2023-02-15T12:22:25;24.75;;;17.55;;
25980;SDS011;13772;52.996;9.124;2023-02-15T12:24:52;22.77;;;16.98;;
25980;SDS011;13772;52.996;9.124;2023-02-15T12:29:46;24.52;;;18.38;;
25980;SDS011;13772;52.996;9.124;2023-02-15T12:32:21;26.30;;;18.23;;
25980;SDS011;13772;52.996;9.124;2023-02-15T12:34:47;25.15;;;19.02;;
25980;SDS011;13772;52.996;9.124;2023-02-15T12:37:30;23.15;;;18.10;;
25980;SDS011;13772;52.996;9.124;2023-02-15T12:40:00;24.80;;;17.98;;
25980;SDS011;13772;52.996;9.124;2023-02-15T12:42:26;24.65;;;17.92;;
25980;SDS011;13772;52.996;9.124;2023-02-15T12:44:57;23.42;;;17.25;;
25980;SDS011;13772;52.996;9.124;2023-02-15T12:47:23;25.17;;;18.60;;
25980;SDS011;13772;52.996;9.124;2023-02-15T12:50:05;25.00;;;17.88;;
25980;SDS011;13772;52.996;9.124;2023-02-15T12:52:31;23.73;;;17.17;;
25980;SDS011;13772;52.996;9.124;2023-02-15T12:55:03;24.70;;;17.48;;
25980;SDS011;13772;52.996;9.124;2023-02-15T12:57:34;25.50;;;17.63;;
25980;SDS011;13772;52.996;9.124;2023-02-15T13:00:00;25.80;;;17.30;;
25980;SDS011;13772;52.996;9.124;2023-02-15T13:02:42;22.90;;;17.13;;
25980;SDS011;13772;52.996;9.124;2023-02-15T13:07:53;26.55;;;17.05;;
25980;SDS011;13772;52.996;9.124;2023-02-15T13:10:24;23.65;;;16.95;;
25980;SDS011;13772;52.996;9.124;2023-02-15T13:12:50;23.48;;;17.00;;
25980;SDS011;13772;52.996;9.124;2023-02-15T13:17:50;25.92;;;17.95;;
25980;SDS011;13772;52.996;9.124;2023-02-15T13:20:19;24.77;;;17.15;;
25980;SDS011;13772;52.996;9.124;2023-02-15T13:22:47;25.23;;;17.05;;
25980;SDS011;13772;52.996;9.124;2023-02-15T13:25:21;21.85;;;16.52;;
25980;SDS011;13772;52.996;9.124;2023-02-15T13:27:48;22.13;;;15.88;;
25980;SDS011;13772;52.996;9.124;2023-02-15T13:30:20;25.55;;;17.05;;
25980;SDS011;13772;52.996;9.124;2023-02-15T13:32:48;23.88;;;15.77;;
25980;SDS011;13772;52.996;9.124;2023-02-15T13:35:15;24.83;;;15.93;;
25980;SDS011;13772;52.996;9.124;2023-02-15T13:43:13;22.98;;;15.35;;
25980;SDS011;13772;52.996;9.124;2023-02-15T13:48:29;23.20;;;16.05;;
25980;SDS011;13772;52.996;9.124;2023-02-15T13:51:07;24.38;;;15.35;;
25980;SDS011;13772;52.996;9.124;2023-02-15T13:53:48;23.05;;;15.02;;
25980;SDS011;13772;52.996;9.124;2023-02-15T14:09:21;24.58;;;16.45;;
25980;SDS011;13772;52.996;9.124;2023-02-15T14:11:55;22.75;;;15.75;;
25980;SDS011;13772;52.996;9.124;2023-02-15T14:14:29;22.35;;;15.48;;
25980;SDS011;13772;52.996;9.124;2023-02-15T14:17:03;21.90;;;15.80;;
25980;SDS011;13772;52.996;9.124;2023-02-15T14:19:44;26.02;;;15.18;;
25980;SDS011;13772;52.996;9.124;2023-02-15T14:22:23;19.20;;;14.40;;
25980;SDS011;13772;52.996;9.124;2023-02-15T14:27:26;20.90;;;15.07;;
25980;SDS011;13772;52.996;9.124;2023-02-15T14:29:59;22.00;;;15.68;;
25980;SDS011;13772;52.996;9.124;2023-02-15T14:35:16;24.75;;;16.05;;
25980;SDS011;13772;52.996;9.124;2023-02-15T14:40:17;20.88;;;15.07;;
25980;SDS011;13772;52.996;9.124;2023-02-15T14:43:09;22.88;;;16.02;;
25980;SDS011;13772;52.996;9.124;2023-02-15T14:48:09;23.50;;;16.67;;
25980;SDS011;13772;52.996;9.124;2023-02-15T14:50:39;23.77;;;16.93;;
25980;SDS011;13772;52.996;9.124;2023-02-15T14:56:04;21.95;;;16.20;;
25980;SDS011;13772;52.996;9.124;2023-02-15T14:58:33;23.48;;;16.88;;
25980;SDS011;13772;52.996;9.124;2023-02-15T15:01:08;24.27;;;16.98;;
25980;SDS011;13772;52.996;9.124;2023-02-15T15:03:34;24.38;;;17.38;;
25980;SDS011;13772;52.996;9.124;2023-02-15T15:06:03;26.23;;;17.33;;
25980;SDS011;13772;52.996;9.124;2023-02-15T15:08:32;25.30;;;17.95;;
25980;SDS011;13772;52.996;9.124;2023-02-15T15:11:01;26.73;;;18.13;;
25980;SDS011;13772;52.996;9.124;2023-02-15T15:13:52;23.83;;;17.50;;
25980;SDS011;13772;52.996;9.124;2023-02-15T15:18:49;26.08;;;18.35;;
25980;SDS011;13772;52.996;9.124;2023-02-15T15:23:58;26.85;;;17.08;;
25980;SDS011;13772;52.996;9.124;2023-02-15T15:26:27;24.83;;;17.85;;
25980;SDS011;13772;52.996;9.124;2023-02-15T15:28:53;23.80;;;16.92;;
25980;SDS011;13772;52.996;9.124;2023-02-15T15:34:07;25.45;;;17.20;;
25980;SDS011;13772;52.996;9.124;2023-02-15T15:44:20;25.83;;;18.17;;
25980;SDS011;13772;52.996;9.124;2023-02-15T15:47:06;24.48;;;16.95;;
25980;SDS011;13772;52.996;9.124;2023-02-15T15:49:34;26.52;;;16.10;;
25980;SDS011;13772;52.996;9.124;2023-02-15T15:52:01;28.50;;;18.73;;
25980;SDS011;13772;52.996;9.124;2023-02-15T15:54:28;28.30;;;17.75;;
25980;SDS011;13772;52.996;9.124;2023-02-15T15:56:55;24.67;;;16.55;;
25980;SDS011;13772;52.996;9.124;2023-02-15T15:59:25;23.35;;;16.38;;
25980;SDS011;13772;52.996;9.124;2023-02-15T16:01:51;27.73;;;17.88;;
25980;SDS011;13772;52.996;9.124;2023-02-15T16:04:24;24.38;;;16.45;;
25980;SDS011;13772;52.996;9.124;2023-02-15T16:06:50;26.42;;;17.35;;
25980;SDS011;13772;52.996;9.124;2023-02-15T16:09:17;24.90;;;16.42;;
25980;SDS011;13772;52.996;9.124;2023-02-15T16:11:43;26.98;;;16.27;;
25980;SDS011;13772;52.996;9.124;2023-02-15T16:14:10;28.55;;;16.95;;
25980;SDS011;13772;52.996;9.124;2023-02-15T16:16:35;25.20;;;16.63;;
25980;SDS011;13772;52.996;9.124;2023-02-15T16:19:01;25.45;;;16.83;;
25980;SDS011;13772;52.996;9.124;2023-02-15T16:21:31;25.75;;;16.80;;
25980;SDS011;13772;52.996;9.124;2023-02-15T16:24:09;24.02;;;17.50;;
25980;SDS011;13772;52.996;9.124;2023-02-15T16:26:58;28.30;;;19.13;;
25980;SDS011;13772;52.996;9.124;2023-02-15T16:29:27;27.00;;;17.20;;
25980;SDS011;13772;52.996;9.124;2023-02-15T16:32:03;25.83;;;16.45;;
25980;SDS011;13772;52.996;9.124;2023-02-15T16:34:28;24.17;;;16.05;;
25980;SDS011;13772;52.996;9.124;2023-02-15T16:37:13;27.92;;;16.10;;
25980;SDS011;13772;52.996;9.124;2023-02-15T16:39:40;24.88;;;17.00;;
25980;SDS011;13772;52.996;9.124;2023-02-15T16:42:05;29.25;;;18.25;;
25980;SDS011;13772;52.996;9.124;2023-02-15T16:44:30;26.25;;;17.48;;
25980;SDS011;13772;52.996;9.124;2023-02-15T16:46:57;28.35;;;18.80;;
25980;SDS011;13772;52.996;9.124;2023-02-15T16:49:27;27.08;;;16.98;;
25980;SDS011;13772;52.996;9.124;2023-02-15T16:51:54;26.63;;;17.30;;
25980;SDS011;13772;52.996;9.124;2023-02-15T16:54:20;26.45;;;17.15;;
25980;SDS011;13772;52.996;9.124;2023-02-15T16:56:46;26.42;;;16.95;;
25980;SDS011;13772;52.996;9.124;2023-02-15T16:59:19;28.02;;;17.05;;
25980;SDS011;13772;52.996;9.124;2023-02-15T17:01:48;28.52;;;17.60;;
25980;SDS011;13772;52.996;9.124;2023-02-15T17:04:27;28.15;;;18.27;;
25980;SDS011;13772;52.996;9.124;2023-02-15T17:07:06;28.90;;;17.35;;
25980;SDS011;13772;52.996;9.124;2023-02-15T17:09:32;30.30;;;17.00;;
25980;SDS011;13772;52.996;9.124;2023-02-15T17:11:57;33.40;;;18.48;;
25980;SDS011;13772;52.996;9.124;2023-02-15T17:14:31;41.67;;;29.20;;
25980;SDS011;13772;52.996;9.124;2023-02-15T17:17:00;34.53;;;22.38;;
25980;SDS011;13772;52.996;9.124;2023-02-15T17:21:58;27.17;;;17.05;;
25980;SDS011;13772;52.996;9.124;2023-02-15T17:26:57;30.13;;;17.88;;
25980;SDS011;13772;52.996;9.124;2023-02-15T17:29:37;26.77;;;17.10;;
25980;SDS011;13772;52.996;9.124;2023-02-15T17:32:03;31.30;;;17.73;;
25980;SDS011;13772;52.996;9.124;2023-02-15T17:37:10;27.73;;;17.25;;
25980;SDS011;13772;52.996;9.124;2023-02-15T17:39:36;25.58;;;17.17;;
25980;SDS011;13772;52.996;9.124;2023-02-15T17:42:01;30.55;;;18.13;;
25980;SDS011;13772;52.996;9.124;2023-02-15T17:44:26;30.25;;;19.05;;
25980;SDS011;13772;52.996;9.124;2023-02-15T17:46:52;31.42;;;17.67;;
25980;SDS011;13772;52.996;9.124;2023-02-15T17:49:20;28.25;;;18.27;;
25980;SDS011;13772;52.996;9.124;2023-02-15T17:51:47;32.63;;;17.85;;
25980;SDS011;13772;52.996;9.124;2023-02-15T17:54:12;30.70;;;19.50;;
25980;SDS011;13772;52.996;9.124;2023-02-15T17:56:56;28.50;;;17.58;;
25980;SDS011;13772;52.996;9.124;2023-02-15T17:59:27;35.22;;;18.65;;
25980;SDS011;13772;52.996;9.124;2023-02-15T18:01:52;30.00;;;17.90;;
25980;SDS011;13772;52.996;9.124;2023-02-15T18:04:36;31.08;;;19.60;;
25980;SDS011;13772;52.996;9.124;2023-02-15T18:07:20;31.80;;;18.20;;
25980;SDS011;13772;52.996;9.124;2023-02-15T18:10:17;28.77;;;17.75;;
25980;SDS011;13772;52.996;9.124;2023-02-15T18:13:01;32.78;;;18.30;;
25980;SDS011;13772;52.996;9.124;2023-02-15T18:15:26;30.45;;;18.52;;
25980;SDS011;13772;52.996;9.124;2023-02-15T18:17:52;30.00;;;17.98;;
25980;SDS011;13772;52.996;9.124;2023-02-15T18:20:18;31.42;;;19.77;;
25980;SDS011;13772;52.996;9.124;2023-02-15T18:22:44;30.38;;;18.80;;
25980;SDS011;13772;52.996;9.124;2023-02-15T18:25:13;29.90;;;19.25;;
25980;SDS011;13772;52.996;9.124;2023-02-15T18:27:39;30.88;;;19.70;;
25980;SDS011;13772;52.996;9.124;2023-02-15T18:30:05;29.90;;;18.58;;
25980;SDS011;13772;52.996;9.124;2023-02-15T18:32:31;31.88;;;20.15;;
25980;SDS011;13772;52.996;9.124;2023-02-15T18:34:58;33.22;;;21.10;;
25980;SDS011;13772;52.996;9.124;2023-02-15T18:37:24;33.97;;;21.75;;
25980;SDS011;13772;52.996;9.124;2023-02-15T18:39:51;29.33;;;19.17;;
25980;SDS011;13772;52.996;9.124;2023-02-15T18:42:21;31.98;;;18.92;;
25980;SDS011;13772;52.996;9.124;2023-02-15T18:44:46;33.97;;;20.42;;
25980;SDS011;13772;52.996;9.124;2023-02-15T18:47:12;29.85;;;18.67;;
25980;SDS011;13772;52.996;9.124;2023-02-15T18:49:37;32.50;;;19.40;;
25980;SDS011;13772;52.996;9.124;2023-02-15T18:52:02;35.60;;;20.58;;
25980;SDS011;13772;52.996;9.124;2023-02-15T18:54:27;32.65;;;19.83;;
25980;SDS011;13772;52.996;9.124;2023-02-15T18:56:54;35.53;;;20.63;;
25980;SDS011;13772;52.996;9.124;2023-02-15T18:59:20;29.92;;;19.35;;
25980;SDS011;13772;52.996;9.124;2023-02-15T19:01:45;31.63;;;19.60;;
25980;SDS011;13772;52.996;9.124;2023-02-15T19:04:10;35.63;;;20.83;;
25980;SDS011;13772;52.996;9.124;2023-02-15T19:06:36;35.17;;;20.55;;
25980;SDS011;13772;52.996;9.124;2023-02-15T19:09:01;35.45;;;20.00;;
25980;SDS011;13772;52.996;9.124;2023-02-15T19:11:26;34.58;;;20.02;;
25980;SDS011;13772;52.996;9.124;2023-02-15T19:13:52;31.25;;;19.75;;
25980;SDS011;13772;52.996;9.124;2023-02-15T19:16:25;31.85;;;19.85;;
25980;SDS011;13772;52.996;9.124;2023-02-15T19:18:51;32.63;;;18.33;;
25980;SDS011;13772;52.996;9.124;2023-02-15T19:21:16;30.17;;;18.63;;
25980;SDS011;13772;52.996;9.124;2023-02-15T19:23:48;35.13;;;20.38;;
25980;SDS011;13772;52.996;9.124;2023-02-15T19:26:15;30.77;;;20.38;;
25980;SDS011;13772;52.996;9.124;2023-02-15T19:28:40;32.53;;;20.45;;
25980;SDS011;13772;52.996;9.124;2023-02-15T19:31:08;33.38;;;19.05;;
25980;SDS011;13772;52.996;9.124;2023-02-15T19:33:34;32.78;;;18.95;;
25980;SDS011;13772;52.996;9.124;2023-02-15T19:36:00;31.60;;;18.52;;
25980;SDS011;13772;52.996;9.124;2023-02-15T19:38:26;37.50;;;20.05;;
25980;SDS011;13772;52.996;9.124;2023-02-15T19:40:53;31.88;;;20.15;;
25980;SDS011;13772;52.996;9.124;2023-02-15T19:43:20;31.67;;;18.85;;
25980;SDS011;13772;52.996;9.124;2023-02-15T19:45:49;34.42;;;19.25;;
25980;SDS011;13772;52.996;9.124;2023-02-15T19:48:17;31.02;;;18.73;;
25980;SDS011;13772;52.996;9.124;2023-02-15T19:50:42;30.67;;;19.63;;
25980;SDS011;13772;52.996;9.124;2023-02-15T19:53:20;32.40;;;20.23;;
25980;SDS011;13772;52.996;9.124;2023-02-15T19:55:45;30.35;;;17.58;;
25980;SDS011;13772;52.996;9.124;2023-02-15T19:58:10;32.80;;;19.38;;
25980;SDS011;13772;52.996;9.124;2023-02-15T20:00:36;30.35;;;18.10;;
25980;SDS011;13772;52.996;9.124;2023-02-15T20:03:02;34.78;;;19.92;;
25980;SDS011;13772;52.996;9.124;2023-02-15T20:05:27;36.00;;;21.45;;
25980;SDS011;13772;52.996;9.124;2023-02-15T20:07:53;34.45;;;18.85;;
25980;SDS011;13772;52.996;9.124;2023-02-15T20:10:20;28.90;;;18.00;;
25980;SDS011;13772;52.996;9.124;2023-02-15T20:12:45;31.95;;;18.88;;
25980;SDS011;13772;52.996;9.124;2023-02-15T20:15:32;29.08;;;19.42;;
25980;SDS011;13772;52.996;9.124;2023-02-15T20:17:57;37.35;;;19.73;;
25980;SDS011;13772;52.996;9.124;2023-02-15T20:20:25;32.70;;;19.92;;
25980;SDS011;13772;52.996;9.124;2023-02-15T20:22:52;30.27;;;19.92;;
25980;SDS011;13772;52.996;9.124;2023-02-15T20:25:20;32.00;;;20.67;;
25980;SDS011;13772;52.996;9.124;2023-02-15T20:27:46;36.00;;;20.27;;
25980;SDS011;13772;52.996;9.124;2023-02-15T20:30:15;36.80;;;20.55;;
25980;SDS011;13772;52.996;9.124;2023-02-15T20:32:40;30.30;;;19.63;;
25980;SDS011;13772;52.996;9.124;2023-02-15T20:35:06;31.73;;;19.50;;
25980;SDS011;13772;52.996;9.124;2023-02-15T20:37:32;33.60;;;20.15;;
25980;SDS011;13772;52.996;9.124;2023-02-15T20:39:57;33.75;;;19.75;;
25980;SDS011;13772;52.996;9.124;2023-02-15T20:42:22;32.40;;;20.27;;
25980;SDS011;13772;52.996;9.124;2023-02-15T20:44:48;32.22;;;20.30;;
25980;SDS011;13772;52.996;9.124;2023-02-15T20:47:13;30.80;;;19.45;;
25980;SDS011;13772;52.996;9.124;2023-02-15T20:49:38;33.42;;;19.45;;
25980;SDS011;13772;52.996;9.124;2023-02-15T20:52:04;30.15;;;18.83;;
25980;SDS011;13772;52.996;9.124;2023-02-15T20:54:38;30.63;;;18.95;;
25980;SDS011;13772;52.996;9.124;2023-02-15T20:57:04;28.45;;;18.15;;
25980;SDS011;13772;52.996;9.124;2023-02-15T20:59:31;32.35;;;20.50;;
25980;SDS011;13772;52.996;9.124;2023-02-15T21:01:57;30.15;;;18.98;;
25980;SDS011;13772;52.996;9.124;2023-02-15T21:04:28;31.20;;;18.55;;
25980;SDS011;13772;52.996;9.124;2023-02-15T21:06:54;30.45;;;18.48;;
25980;SDS011;13772;52.996;9.124;2023-02-15T21:09:19;32.67;;;18.25;;
25980;SDS011;13772;52.996;9.124;2023-02-15T21:11:45;30.00;;;19.23;;
25980;SDS011;13772;52.996;9.124;2023-02-15T21:14:20;29.40;;;19.73;;
25980;SDS011;13772;52.996;9.124;2023-02-15T21:16:46;31.38;;;19.85;;
25980;SDS011;13772;52.996;9.124;2023-02-15T21:19:12;27.42;;;18.25;;
25980;SDS011;13772;52.996;9.124;2023-02-15T21:21:38;28.90;;;18.15;;
25980;SDS011;13772;52.996;9.124;2023-02-15T21:24:03;29.23;;;18.90;;
25980;SDS011;13772;52.996;9.124;2023-02-15T21:26:29;31.15;;;18.65;;
25980;SDS011;13772;52.996;9.124;2023-02-15T21:28:54;31.55;;;17.83;;
25980;SDS011;13772;52.996;9.124;2023-02-15T21:31:22;29.58;;;18.73;;
25980;SDS011;13772;52.996;9.124;2023-02-15T21:33:47;33.03;;;18.55;;
25980;SDS011;13772;52.996;9.124;2023-02-15T21:36:13;33.08;;;18.90;;
25980;SDS011;13772;52.996;9.124;2023-02-15T21:38:39;29.70;;;17.85;;
25980;SDS011;13772;52.996;9.124;2023-02-15T21:41:04;27.15;;;17.55;;
25980;SDS011;13772;52.996;9.124;2023-02-15T21:43:49;30.80;;;17.55;;
25980;SDS011;13772;52.996;9.124;2023-02-15T21:46:33;29.15;;;16.88;;
25980;SDS011;13772;52.996;9.124;2023-02-15T21:49:17;29.75;;;17.33;;
25980;SDS011;13772;52.996;9.124;2023-02-15T21:51:42;29.92;;;18.70;;
25980;SDS011;13772;52.996;9.124;2023-02-15T21:54:26;30.00;;;18.42;;
25980;SDS011;13772;52.996;9.124;2023-02-15T21:56:52;33.67;;;19.67;;
25980;SDS011;13772;52.996;9.124;2023-02-15T21:59:18;29.80;;;18.20;;
25980;SDS011;13772;52.996;9.124;2023-02-15T22:01:47;28.33;;;18.63;;
25980;SDS011;13772;52.996;9.124;2023-02-15T22:06:38;29.83;;;17.30;;
25980;SDS011;13772;52.996;9.124;2023-02-15T22:09:17;27.02;;;16.58;;
25980;SDS011;13772;52.996;9.124;2023-02-15T22:11:43;27.83;;;17.35;;
25980;SDS011;13772;52.996;9.124;2023-02-15T22:14:34;27.58;;;17.20;;
25980;SDS011;13772;52.996;9.124;2023-02-15T22:17:00;27.40;;;17.13;;
25980;SDS011;13772;52.996;9.124;2023-02-15T22:19:25;31.02;;;18.80;;
25980;SDS011;13772;52.996;9.124;2023-02-15T22:21:50;33.65;;;19.33;;
25980;SDS011;13772;52.996;9.124;2023-02-15T22:24:16;31.52;;;17.77;;
25980;SDS011;13772;52.996;9.124;2023-02-15T22:26:41;31.60;;;18.48;;
25980;SDS011;13772;52.996;9.124;2023-02-15T22:29:08;28.48;;;18.80;;
25980;SDS011;13772;52.996;9.124;2023-02-15T22:34:01;29.18;;;18.02;;
25980;SDS011;13772;52.996;9.124;2023-02-15T22:36:27;30.65;;;18.35;;
25980;SDS011;13772;52.996;9.124;2023-02-15T22:38:53;32.35;;;19.63;;
25980;SDS011;13772;52.996;9.124;2023-02-15T22:41:18;36.55;;;19.98;;
25980;SDS011;13772;52.996;9.124;2023-02-15T22:43:44;31.35;;;18.92;;
25980;SDS011;13772;52.996;9.124;2023-02-15T22:46:17;34.45;;;19.77;;
25980;SDS011;13772;52.996;9.124;2023-02-15T22:48:43;32.65;;;19.45;;
25980;SDS011;13772;52.996;9.124;2023-02-15T22:51:12;33.00;;;21.10;;
25980;SDS011;13772;52.996;9.124;2023-02-15T22:53:37;35.67;;;19.98;;
25980;SDS011;13772;52.996;9.124;2023-02-15T22:56:03;31.95;;;19.65;;
